Hudson Mills, Michigan
Current Conditions -  °F | °C
As of 11:53 PM on Wednesday 26 Nov 2014 (Local Time) from KARB Reporting Station
Overcast Overcast  
Wind Chill: 21°   Ceiling: 5000
Heat Index: 30°   Visibility: 10mi
Dew Point: 23°   Wind: 10mph
Humidity: 75%   Direction: 350°N
Pressure: 30.09"   Gusts: NA
Location:  42.3528°N, 83.8974°W
Report Text: KARB 270453Z AUTO 35009KT 10SM OVC050 M01/M05 A3009 RMK AO2 SLP197 T10111050 400061022
Loading
Personal Weather Stations






























Interactive Weather Map New forecast layout! Learn more

10-Day Weather Forecast

Advertisements
Track Severe Weather on mobile